Time;durP1;ratioP1;P1;durP2;ratioP2;P2;SDS_P1;SDS_P2;PMS_P1;PMS_P2;Temp;Humidity;BMP_temperature;BMP_pressure;BME280_temperature;BME280_humidity;BME280_pressure;Samples;Min_cycle;Max_cycle;Signal;HPM_P1;HPM_P2
2022/05/06 00:00:14;;;;;;;6.53;3.35;;;;;;;9.73;75.86;101623.00;5063874;28;20036;-74
2022/05/06 00:02:41;;;;;;;10.60;3.90;;;;;;;9.68;76.66;101622.34;5073549;28;20037;-74
2022/05/06 00:05:10;;;;;;;8.02;4.00;;;;;;;9.68;75.90;101616.19;5045684;28;20062;-75
2022/05/06 00:07:38;;;;;;;8.13;3.50;;;;;;;9.65;76.71;101617.19;5055979;28;20637;-74
2022/05/06 00:10:06;;;;;;;10.25;4.80;;;;;;;9.59;76.56;101623.56;5043565;28;20041;-74
2022/05/06 00:12:34;;;;;;;8.00;3.42;;;;;;;9.56;76.98;101623.66;5058361;28;20058;-78
2022/05/06 00:15:02;;;;;;;8.32;3.50;;;;;;;9.54;77.62;101630.72;5052059;28;20063;-74
2022/05/06 00:17:29;;;;;;;6.22;3.88;;;;;;;9.51;77.52;101624.75;5063960;28;20135;-74
2022/05/06 00:19:57;;;;;;;11.05;4.05;;;;;;;9.48;77.13;101620.47;5044236;28;20049;-77
2022/05/06 00:22:25;;;;;;;8.00;3.55;;;;;;;9.43;77.63;101625.03;5034183;28;20063;-77
2022/05/06 00:24:52;;;;;;;5.20;3.20;;;;;;;9.41;78.38;101633.91;5046310;28;20066;-76
2022/05/06 00:27:19;;;;;;;9.18;3.78;;;;;;;9.33;79.08;101631.56;5055263;28;20063;-77
2022/05/06 00:29:46;;;;;;;11.55;4.65;;;;;;;9.27;79.48;101623.91;5068498;28;20056;-77
2022/05/06 00:32:14;;;;;;;8.93;3.47;;;;;;;9.24;79.45;101621.41;5068138;28;20044;-76
2022/05/06 00:34:41;;;;;;;6.30;3.63;;;;;;;9.21;80.01;101632.03;5032019;28;20052;-76
2022/05/06 00:37:08;;;;;;;9.23;3.83;;;;;;;9.15;80.92;101627.00;5030974;28;20525;-76
2022/05/06 00:39:35;;;;;;;6.50;3.72;;;;;;;9.09;80.89;101623.66;5061888;28;20063;-76
2022/05/06 00:42:03;;;;;;;7.03;3.72;;;;;;;9.07;81.05;101622.88;5048513;28;20128;-77
2022/05/06 00:44:30;;;;;;;5.80;3.47;;;;;;;9.04;81.37;101625.59;5047923;28;20044;-77
2022/05/06 00:46:58;;;;;;;16.80;5.28;;;;;;;9.00;81.73;101623.16;5050085;28;20052;-76
2022/05/06 00:49:25;;;;;;;8.27;4.15;;;;;;;8.98;82.03;101619.75;5043796;28;20047;-77
2022/05/06 00:51:53;;;;;;;6.60;3.80;;;;;;;8.95;82.30;101618.06;5042413;28;20056;-76
2022/05/06 00:54:24;;;;;;;10.57;4.07;;;;;;;8.91;82.09;101616.47;5031252;28;20055;-77
2022/05/06 00:56:52;;;;;;;7.95;4.00;;;;;;;8.90;82.38;101619.16;5074750;28;20052;-77
2022/05/06 00:59:20;;;;;;;9.65;4.20;;;;;;;8.87;82.83;101617.47;5058863;28;20052;-77
2022/05/06 01:01:47;;;;;;;10.93;5.63;;;;;;;8.82;83.65;101620.28;5055122;28;20040;-77
2022/05/06 01:04:17;;;;;;;7.10;3.65;;;;;;;8.80;83.94;101626.50;5049055;28;20052;-76
2022/05/06 01:06:46;;;;;;;6.97;4.28;;;;;;;8.78;83.45;101630.94;5068362;28;21759;-76
2022/05/06 01:09:17;;;;;;;7.60;4.13;;;;;;;8.74;83.55;101632.84;5032282;28;20141;-74
2022/05/06 01:11:46;;;;;;;10.52;4.45;;;;;;;8.69;84.28;101637.41;5059936;28;20075;-74
2022/05/06 01:14:30;;;;;;;8.38;4.75;;;;;;;8.70;83.92;101630.38;5046091;28;20419;-75
2022/05/06 01:16:57;;;;;;;7.07;4.57;;;;;;;8.67;84.64;101633.09;5034801;28;20159;-75
2022/05/06 01:19:24;;;;;;;7.18;4.03;;;;;;;8.63;83.99;101629.72;5064673;28;20032;-75
2022/05/06 01:21:55;;;;;;;7.68;4.18;;;;;;;8.62;84.09;101633.25;5037401;28;20052;-75
2022/05/06 01:24:22;;;;;;;9.55;4.80;;;;;;;8.61;84.16;101621.91;5032040;28;20053;-75
2022/05/06 01:27:00;;;;;;;11.98;4.05;;;;;;;8.59;84.35;101626.34;5055413;28;20053;-73
2022/05/06 01:29:30;;;;;;;7.57;4.60;;;;;;;8.56;84.52;101628.22;5079124;28;20040;-77
2022/05/06 01:31:58;;;;;;;12.88;4.63;;;;;;;8.53;85.30;101634.44;5067868;28;20055;-75
2022/05/06 01:34:32;;;;;;;8.90;4.47;;;;;;;8.51;85.56;101641.50;5055202;28;20045;-76
2022/05/06 01:37:02;;;;;;;7.72;4.15;;;;;;;8.51;85.73;101645.88;5054181;28;20417;-77
2022/05/06 01:39:33;;;;;;;7.18;4.35;;;;;;;8.48;85.60;101640.75;5062973;28;20060;-74
2022/05/06 01:42:06;;;;;;;7.82;4.32;;;;;;;8.48;85.97;101636.34;5032621;28;20086;-74
2022/05/06 01:44:42;;;;;;;13.48;5.03;;;;;;;8.49;85.15;101632.81;5067215;28;20530;-77
2022/05/06 01:47:16;;;;;;;11.23;4.95;;;;;;;8.48;85.59;101635.50;5069207;28;20824;-76
2022/05/06 01:49:45;;;;;;;8.47;4.10;;;;;;;8.48;84.99;101630.25;5057907;28;20555;-77
2022/05/06 01:52:16;;;;;;;10.98;5.47;;;;;;;8.50;86.46;101642.41;5046801;28;20067;-76
2022/05/06 01:54:44;;;;;;;10.85;4.72;;;;;;;8.48;86.49;101646.00;5048262;28;20067;-77
2022/05/06 01:57:11;;;;;;;11.55;4.88;;;;;;;8.39;87.78;101651.56;5064803;28;20139;-76
2022/05/06 01:59:38;;;;;;;12.10;5.03;;;;;;;8.40;87.73;101648.03;5066149;28;20044;-77
2022/05/06 02:02:05;;;;;;;9.77;4.55;;;;;;;8.40;86.64;101645.41;5051538;28;20507;-77
2022/05/06 02:07:19;;;;;;;12.45;5.35;;;;;;;8.39;86.89;101635.81;5067414;28;20215;-77
2022/05/06 02:09:46;;;;;;;8.25;4.65;;;;;;;8.39;87.26;101641.06;5074123;28;20096;-77
2022/05/06 02:12:13;;;;;;;9.20;4.97;;;;;;;8.37;87.33;101638.47;5063372;28;20144;-75
2022/05/06 02:14:40;;;;;;;9.50;4.38;;;;;;;8.39;86.95;101635.81;5054825;28;20052;-77
2022/05/06 02:17:07;;;;;;;9.07;5.20;;;;;;;8.36;87.54;101632.38;5049560;28;20120;-74
2022/05/06 02:19:35;;;;;;;8.35;4.85;;;;;;;8.38;88.18;101634.09;5054632;28;20124;-75
2022/05/06 02:22:02;;;;;;;14.15;5.68;;;;;;;8.41;88.24;101632.22;5064028;28;20055;-74
2022/05/06 02:24:29;;;;;;;16.15;5.82;;;;;;;8.41;87.94;101626.97;5042403;28;20048;-74
2022/05/06 02:26:57;;;;;;;10.52;5.13;;;;;;;8.44;87.93;101639.13;5062197;28;20057;-74
2022/05/06 02:29:24;;;;;;;11.27;5.55;;;;;;;8.46;87.83;101640.78;5054210;28;20422;-77
2022/05/06 02:34:37;;;;;;;10.23;5.10;;;;;;;8.48;88.21;101649.47;5064690;28;20402;-72
2022/05/06 02:37:04;;;;;;;13.85;5.40;;;;;;;8.50;87.94;101644.16;5063388;28;20036;-75
2022/05/06 02:39:31;;;;;;;8.43;5.40;;;;;;;8.50;88.22;101641.53;5046049;28;20037;-75
2022/05/06 02:41:59;;;;;;;17.80;5.95;;;;;;;8.48;88.65;101640.75;5063619;28;20556;-75
2022/05/06 02:44:26;;;;;;;13.55;5.50;;;;;;;8.45;88.65;101633.81;5066422;28;20043;-75
2022/05/06 02:46:53;;;;;;;12.07;5.03;;;;;;;8.42;89.08;101638.31;5031126;28;20067;-75
2022/05/06 02:49:20;;;;;;;9.25;5.68;;;;;;;8.39;88.92;101634.03;5059648;28;20053;-74
2022/05/06 02:51:49;;;;;;;13.65;5.40;;;;;;;8.38;89.71;101634.97;5050277;28;20063;-75
2022/05/06 02:54:21;;;;;;;12.60;5.13;;;;;;;8.35;90.03;101641.13;5076547;28;20076;-75
2022/05/06 02:56:49;;;;;;;10.70;5.75;;;;;;;8.30;90.16;101636.94;5063017;28;20053;-74
2022/05/06 02:59:17;;;;;;;10.30;5.50;;;;;;;8.31;89.50;101643.91;5063417;28;20120;-75
2022/05/06 03:01:45;;;;;;;11.77;6.35;;;;;;;8.28;89.51;101636.97;5050044;28;20056;-74
2022/05/06 03:04:13;;;;;;;8.88;5.53;;;;;;;8.25;90.18;101638.88;5047903;28;20044;-76
2022/05/06 03:06:44;;;;;;;13.60;6.28;;;;;;;8.19;90.99;101637.28;5065403;28;20059;-76
2022/05/06 03:09:11;;;;;;;13.98;6.30;;;;;;;8.18;91.32;101642.59;5052868;28;20433;-77
2022/05/06 03:11:38;;;;;;;11.80;6.50;;;;;;;8.18;91.15;101647.84;5078567;28;20036;-76
2022/05/06 03:14:06;;;;;;;11.57;5.43;;;;;;;8.18;91.06;101645.22;5063141;28;20037;-76
2022/05/06 03:16:33;;;;;;;11.85;5.93;;;;;;;8.18;91.35;101647.84;5071475;28;20052;-78
2022/05/06 03:19:00;;;;;;;12.43;5.85;;;;;;;8.16;91.41;101641.78;5064038;28;20045;-78
2022/05/06 03:21:27;;;;;;;12.82;5.70;;;;;;;8.16;91.58;101647.91;5062465;28;20053;-75
2022/05/06 03:23:55;;;;;;;11.02;6.13;;;;;;;8.14;91.17;101647.06;5058941;28;20128;-76
2022/05/06 03:26:22;;;;;;;14.30;5.88;;;;;;;8.15;90.73;101647.91;5049016;28;20507;-74
2022/05/06 03:28:49;;;;;;;10.20;5.93;;;;;;;8.15;91.61;101645.31;5054001;28;20059;-75
2022/05/06 03:31:18;;;;;;;10.82;5.88;;;;;;;8.16;91.69;101649.66;5045209;28;20052;-77
2022/05/06 03:33:47;;;;;;;11.35;5.50;;;;;;;8.18;91.60;101645.22;5059132;28;20059;-77
2022/05/06 03:36:15;;;;;;;10.32;5.68;;;;;;;8.21;91.03;101650.38;5050233;28;20041;-77
2022/05/06 03:38:42;;;;;;;13.23;6.95;;;;;;;8.21;91.89;101645.13;5062174;28;20762;-75
2022/05/06 03:41:09;;;;;;;13.60;6.18;;;;;;;8.22;92.07;101650.31;5051166;28;20037;-76
2022/05/06 03:43:36;;;;;;;11.32;5.90;;;;;;;8.26;91.31;101645.81;5065130;28;20525;-76
2022/05/06 03:46:03;;;;;;;15.57;7.43;;;;;;;8.28;91.50;101649.25;5051552;28;20135;-76
2022/05/06 03:48:31;;;;;;;13.63;6.90;;;;;;;8.32;91.31;101651.72;5048077;28;20044;-76
2022/05/06 03:53:44;;;;;;;16.95;7.03;;;;;;;8.39;91.28;101659.44;5045555;28;20053;-75
2022/05/06 03:56:11;;;;;;;13.90;7.15;;;;;;;8.39;91.41;101657.66;5060064;28;20104;-77
2022/05/06 03:58:39;;;;;;;12.25;6.45;;;;;;;8.44;91.72;101658.34;5054859;28;20049;-77
2022/05/06 04:01:09;;;;;;;15.90;7.60;;;;;;;8.50;91.15;101668.63;5052591;28;20049;-77
2022/05/06 04:03:38;;;;;;;11.77;6.53;;;;;;;8.55;90.89;101658.84;5032379;28;20053;-77
2022/05/06 04:06:05;;;;;;;16.98;7.90;;;;;;;8.61;90.54;101660.44;5070315;28;20047;-76
2022/05/06 04:08:32;;;;;;;14.68;7.20;;;;;;;8.63;90.11;101667.31;5063165;28;20367;-74
2022/05/06 04:11:00;;;;;;;16.75;7.65;;;;;;;8.70;90.01;101669.75;5069835;28;20044;-75
2022/05/06 04:13:27;;;;;;;12.02;6.65;;;;;;;8.78;89.42;101667.69;5050451;28;20044;-75
2022/05/06 04:15:55;;;;;;;18.00;7.38;;;;;;;8.84;89.42;101672.75;5053100;28;20136;-76
2022/05/06 04:18:22;;;;;;;14.45;6.72;;;;;;;8.90;88.73;101671.66;5062314;28;20459;-73
2022/05/06 04:23:37;;;;;;;;;;;;;;;9.01;88.62;101680.91;5066960;28;20046;-75
2022/05/06 04:26:10;;;;;;;13.35;7.25;;;;;;;9.05;88.13;101679.88;5053609;28;19926;-80
2022/05/06 04:28:37;;;;;;;14.25;7.13;;;;;;;9.07;88.34;101688.56;5050640;28;20135;-76
2022/05/06 04:31:05;;;;;;;14.10;7.15;;;;;;;9.13;88.41;101688.31;5062602;28;20383;-73
2022/05/06 04:33:32;;;;;;;17.95;7.07;;;;;;;9.23;87.34;101687.97;5064055;28;20282;-73
2022/05/06 04:36:00;;;;;;;12.20;7.00;;;;;;;9.30;87.19;101686.88;5068696;28;20047;-74
2022/05/06 04:38:28;;;;;;;15.60;7.05;;;;;;;9.37;87.15;101691.00;5082131;28;20045;-76
2022/05/06 04:40:56;;;;;;;10.32;7.13;;;;;;;9.45;86.38;101695.94;5072430;28;20046;-74
2022/05/06 04:43:23;;;;;;;14.02;7.15;;;;;;;9.54;85.47;101692.97;5034482;28;20036;-75
2022/05/06 04:45:51;;;;;;;12.18;7.18;;;;;;;9.61;85.87;101699.72;5047247;28;20044;-74
2022/05/06 04:48:19;;;;;;;17.58;7.43;;;;;;;9.70;85.08;101696.75;5060313;28;20147;-74
2022/05/06 04:50:47;;;;;;;16.52;7.18;;;;;;;9.78;84.96;101693.84;5042178;28;20167;-75
2022/05/06 04:53:14;;;;;;;13.80;7.15;;;;;;;9.87;83.64;101696.97;5063376;28;20070;-76
2022/05/06 04:55:45;;;;;;;10.75;7.45;;;;;;;9.99;83.24;101695.59;5046773;28;20198;-75
2022/05/06 04:58:14;;;;;;;15.65;7.93;;;;;;;10.10;83.46;101705.72;5033885;28;20143;-74
2022/05/06 05:00:42;;;;;;;19.55;8.43;;;;;;;10.19;83.48;101715.03;5059412;28;20116;-74
2022/05/06 05:03:10;;;;;;;15.05;7.30;;;;;;;10.33;82.52;101710.09;5060193;28;20049;-75
2022/05/06 05:05:37;;;;;;;12.75;7.13;;;;;;;10.44;82.46;101715.75;5046487;28;20052;-74
2022/05/06 05:08:04;;;;;;;16.60;6.80;;;;;;;10.48;82.24;101712.09;5054147;28;20056;-75
2022/05/06 05:10:31;;;;;;;12.38;7.30;;;;;;;10.57;81.83;101713.50;5062487;28;20044;-74
2022/05/06 05:12:59;;;;;;;19.60;8.45;;;;;;;10.68;81.40;101713.91;5052396;28;20094;-73
2022/05/06 05:15:26;;;;;;;15.48;7.63;;;;;;;10.79;81.74;101713.44;5048757;28;20041;-75
2022/05/06 05:17:53;;;;;;;14.82;7.65;;;;;;;10.90;81.37;101717.34;5065790;28;20067;-74
2022/05/06 05:20:21;;;;;;;21.20;7.80;;;;;;;10.99;80.55;101716.09;5044812;28;20048;-77
2022/05/06 05:22:48;;;;;;;13.60;8.05;;;;;;;11.06;80.12;101724.59;5057851;28;20182;-75
2022/05/06 05:25:15;;;;;;;15.18;7.85;;;;;;;11.15;79.83;101717.13;5045810;28;20047;-77
2022/05/06 05:27:43;;;;;;;32.78;9.32;;;;;;;11.29;79.43;101723.56;5073504;28;20068;-75
2022/05/06 05:30:11;;;;;;;25.13;9.52;;;;;;;11.31;79.55;101719.09;5029882;28;20048;-76
2022/05/06 05:32:39;;;;;;;21.25;7.50;;;;;;;11.42;78.81;101727.38;5060589;28;20063;-76
2022/05/06 05:35:07;;;;;;;15.13;7.53;;;;;;;11.57;77.65;101725.81;5025389;28;20132;-76
2022/05/06 05:37:35;;;;;;;19.20;7.97;;;;;;;11.71;77.18;101725.19;5042903;28;20049;-74
2022/05/06 05:40:03;;;;;;;14.57;7.25;;;;;;;11.78;76.86;101730.13;5068076;28;20491;-76
2022/05/06 05:42:31;;;;;;;19.25;8.20;;;;;;;11.86;75.56;101738.56;5063491;28;20052;-76
2022/05/06 05:50:30;;;;;;;17.45;6.75;;;;;;;12.20;72.56;101738.75;5066938;28;20048;-77
2022/05/06 05:52:58;;;;;;;16.90;7.70;;;;;;;12.26;72.69;101734.03;5066597;28;20038;-78
2022/05/06 05:55:25;;;;;;;24.77;7.75;;;;;;;12.37;71.91;101734.38;5054780;28;20525;-75
2022/05/06 05:57:52;;;;;;;13.25;7.97;;;;;;;12.45;70.95;101733.16;5032119;28;20054;-76
2022/05/06 06:00:20;;;;;;;17.50;7.45;;;;;;;12.59;70.05;101734.16;5032022;28;20536;-77
2022/05/06 06:02:47;;;;;;;17.63;7.57;;;;;;;12.70;69.71;101738.06;5051076;28;20040;-77
2022/05/06 06:05:15;;;;;;;16.67;8.10;;;;;;;12.74;68.33;101736.97;5062084;28;20053;-76
2022/05/06 06:07:42;;;;;;;19.63;9.50;;;;;;;12.80;67.89;101734.03;5052412;28;20048;-76
2022/05/06 06:10:09;;;;;;;16.48;7.20;;;;;;;12.90;67.52;101737.91;5068942;28;20418;-78
2022/05/06 06:12:37;;;;;;;17.33;6.57;;;;;;;12.98;66.87;101740.19;5039045;28;20037;-76
2022/05/06 06:15:05;;;;;;;17.13;6.43;;;;;;;13.12;65.00;101733.25;5072293;28;20157;-78
2022/05/06 06:17:32;;;;;;;14.02;5.97;;;;;;;13.16;63.39;101736.59;5053138;28;20055;-78
2022/05/06 06:20:01;;;;;;;12.13;5.95;;;;;;;13.13;62.37;101742.03;5063159;28;20048;-73
2022/05/06 06:22:30;;;;;;;14.98;6.93;;;;;;;13.28;62.30;101735.09;5063022;28;20054;-74
2022/05/06 06:24:57;;;;;;;13.23;5.45;;;;;;;13.39;61.12;101738.91;5066871;28;20036;-72
2022/05/06 06:27:27;;;;;;;14.65;5.93;;;;;;;13.48;60.05;101736.72;5066426;28;20041;-73
2022/05/06 06:29:55;;;;;;;15.18;5.60;;;;;;;13.60;59.30;101739.56;5068064;28;20123;-74
2022/05/06 06:32:23;;;;;;;18.67;5.70;;;;;;;13.60;59.18;101744.84;5042015;28;20040;-73
2022/05/06 06:34:52;;;;;;;16.27;5.88;;;;;;;13.65;59.80;101741.97;5044656;28;20044;-73
2022/05/06 06:37:20;;;;;;;13.13;5.93;;;;;;;13.72;58.73;101738.03;5050360;28;20059;-73
2022/05/06 06:39:47;;;;;;;10.50;5.28;;;;;;;13.88;58.30;101736.25;5046281;28;20048;-73
2022/05/06 06:42:15;;;;;;;13.30;5.72;;;;;;;14.00;58.12;101745.31;5053124;28;20106;-73
2022/05/06 06:44:42;;;;;;;16.10;6.60;;;;;;;13.92;57.49;101740.44;5069398;28;20052;-74
2022/05/06 06:47:10;;;;;;;13.48;5.53;;;;;;;13.99;58.23;101743.59;5067482;28;20048;-74
2022/05/06 06:49:37;;;;;;;9.27;5.22;;;;;;;14.17;57.58;101747.88;5047973;28;20055;-73
2022/05/06 06:52:04;;;;;;;14.05;6.28;;;;;;;14.30;57.94;101740.09;5067411;28;20120;-74
2022/05/06 06:54:32;;;;;;;14.90;6.03;;;;;;;14.40;57.89;101748.34;5046038;28;20499;-74
2022/05/06 06:57:00;;;;;;;10.55;6.13;;;;;;;14.53;58.21;101746.75;5047894;28;20071;-75
2022/05/06 06:59:31;;;;;;;13.93;6.40;;;;;;;14.69;57.44;101750.22;5049165;28;20406;-73
2022/05/06 07:01:59;;;;;;;12.18;6.82;;;;;;;14.73;57.48;101745.63;5048245;28;20376;-73
2022/05/06 07:04:26;;;;;;;13.00;6.32;;;;;;;14.84;57.14;101753.78;5062243;28;20062;-73
2022/05/06 07:12:30;;;;;;;19.17;8.50;;;;;;;14.83;57.01;101760.03;5040568;28;20041;-75
2022/05/06 07:14:57;;;;;;;18.73;8.52;;;;;;;15.01;57.01;101758.09;5054038;28;20112;-74
2022/05/06 07:17:24;;;;;;;16.33;7.15;;;;;;;15.10;56.28;101754.03;5068399;28;20083;-75
2022/05/06 07:19:52;;;;;;;19.13;8.50;;;;;;;15.25;55.94;101758.41;5064376;28;20044;-75
2022/05/06 07:22:19;;;;;;;20.80;8.00;;;;;;;15.39;55.86;101769.03;5063601;28;20043;-77
2022/05/06 07:24:54;;;;;;;22.88;7.22;;;;;;;15.56;56.05;101767.16;5074353;28;20032;-76
2022/05/06 07:27:22;;;;;;;19.05;7.95;;;;;;;15.73;55.52;101769.66;5070155;28;20040;-75
2022/05/06 07:29:49;;;;;;;15.02;6.88;;;;;;;15.83;54.74;101762.81;5073138;28;20044;-75
2022/05/06 07:32:18;;;;;;;10.27;5.95;;;;;;;15.83;54.87;101764.63;5046013;28;20049;-76
2022/05/06 07:34:45;;;;;;;11.38;6.90;;;;;;;15.78;55.14;101770.22;5048208;28;21726;-78
2022/05/06 07:37:12;;;;;;;12.70;7.47;;;;;;;15.87;54.87;101769.63;5047131;28;20101;-76
2022/05/06 07:39:40;;;;;;;15.23;8.00;;;;;;;15.84;55.14;101772.47;5053022;28;20049;-77
2022/05/06 07:42:08;;;;;;;15.32;8.15;;;;;;;15.95;54.18;101777.13;5070475;28;20044;-75
2022/05/06 07:44:36;;;;;;;12.27;6.90;;;;;;;16.06;54.00;101769.31;5065615;28;20058;-75
2022/05/06 07:47:04;;;;;;;16.40;7.97;;;;;;;16.12;53.67;101768.94;5074359;28;20044;-75
2022/05/06 07:49:31;;;;;;;12.38;6.82;;;;;;;16.22;54.05;101771.00;5050148;28;20044;-75
2022/05/06 07:51:59;;;;;;;13.60;6.85;;;;;;;16.44;53.58;101776.63;5052550;28;20127;-75
2022/05/06 07:54:27;;;;;;;17.33;7.95;;;;;;;16.60;53.31;101779.97;5062291;28;20056;-76
2022/05/06 07:56:54;;;;;;;12.98;7.38;;;;;;;16.46;54.09;101780.03;5074045;28;20087;-75
2022/05/06 07:59:21;;;;;;;12.70;7.72;;;;;;;16.76;53.75;101782.53;5064471;28;20127;-76
2022/05/06 08:04:36;;;;;;;12.95;7.65;;;;;;;16.98;52.72;101781.94;5043411;28;20096;-76
2022/05/06 08:07:05;;;;;;;13.10;7.53;;;;;;;17.01;52.20;101775.53;5050205;28;20040;-77
2022/05/06 08:09:34;;;;;;;13.75;8.30;;;;;;;17.18;51.70;101776.09;5068929;28;20094;-77
2022/05/06 08:12:01;;;;;;;16.63;9.35;;;;;;;17.23;51.51;101780.25;5031264;28;20053;-77
2022/05/06 08:14:30;;;;;;;18.15;9.80;;;;;;;17.55;50.64;101770.03;5062149;28;20052;-76
2022/05/06 08:16:58;;;;;;;12.88;8.05;;;;;;;17.49;49.95;101776.66;5045987;28;20059;-76
2022/05/06 08:19:26;;;;;;;14.38;7.60;;;;;;;17.27;50.95;101784.41;5058642;28;20059;-76
2022/05/06 08:21:53;;;;;;;13.90;8.07;;;;;;;17.16;51.22;101779.84;5040126;28;20063;-76
2022/05/06 08:24:21;;;;;;;14.75;7.28;;;;;;;17.25;50.29;101784.53;5037598;28;20048;-77
2022/05/06 08:26:49;;;;;;;14.43;8.02;;;;;;;17.22;50.18;101782.06;5068416;28;20052;-76
2022/05/06 08:29:16;;;;;;;11.77;6.93;;;;;;;17.21;50.86;101783.88;5038831;28;20521;-76
2022/05/06 08:31:44;;;;;;;15.15;8.20;;;;;;;17.67;50.07;101785.16;5067118;28;20114;-76
2022/05/06 08:34:12;;;;;;;13.13;7.45;;;;;;;18.19;49.33;101770.78;5064621;28;20538;-76
2022/05/06 08:36:45;;;;;;;15.00;8.23;;;;;;;18.50;48.23;101779.22;5072819;28;20135;-75
2022/05/06 08:39:12;;;;;;;16.38;7.70;;;;;;;18.41;47.86;101775.41;5066207;28;20059;-75
2022/05/06 08:41:40;;;;;;;11.05;7.28;;;;;;;18.77;47.71;101771.00;5064822;28;20199;-76
2022/05/06 08:52:35;;;;;;;13.02;7.10;;;;;;;19.01;45.09;101774.50;5066818;28;20045;-77
2022/05/06 08:55:04;;;;;;;11.07;6.10;;;;;;;18.67;45.56;101760.97;5047229;28;20128;-76
2022/05/06 08:57:32;;;;;;;12.30;6.55;;;;;;;18.73;45.79;101759.69;5046918;28;20044;-77
2022/05/06 08:59:59;;;;;;;19.52;7.43;;;;;;;18.61;46.43;101764.13;5057251;28;20043;-76
2022/05/06 09:02:27;;;;;;;18.33;7.47;;;;;;;18.92;46.87;101770.72;5065906;28;20052;-77
2022/05/06 09:04:54;;;;;;;13.75;6.88;;;;;;;18.97;45.87;101767.69;5066325;28;20063;-76
2022/05/06 09:07:24;;;;;;;15.35;7.30;;;;;;;19.15;46.20;101770.75;5065462;28;20797;-77
2022/05/06 09:10:14;;;;;;;14.60;7.03;;;;;;;18.86;46.20;101762.28;5064757;28;20056;-76
2022/05/06 09:12:42;;;;;;;13.02;7.35;;;;;;;18.58;45.94;101764.34;5062623;28;20048;-79
2022/05/06 09:17:58;;;;;;;11.98;6.85;;;;;;;18.22;46.63;101762.59;5048793;28;20418;-78
2022/05/06 09:20:27;;;;;;;12.23;6.53;;;;;;;18.29;46.43;101771.84;5060119;28;20633;-76
2022/05/06 09:22:55;;;;;;;12.82;6.32;;;;;;;18.11;46.84;101763.38;5079712;28;20055;-75
2022/05/06 09:25:43;;;;;;;13.75;6.82;;;;;;;17.75;47.70;101771.34;5056302;28;20391;-78
2022/05/06 09:28:22;;;;;;;14.40;5.90;;;;;;;17.76;48.17;101762.38;5043073;28;20492;-77
2022/05/06 09:31:02;;;;;;;11.82;6.20;;;;;;;18.01;47.72;101756.97;5060187;28;20112;-77
2022/05/06 09:33:31;;;;;;;11.43;6.78;;;;;;;18.23;46.57;101754.47;5062719;28;20132;-77
2022/05/06 09:35:59;;;;;;;12.50;5.88;;;;;;;18.50;46.32;101756.06;5045267;28;20044;-76
2022/05/06 09:38:29;;;;;;;12.18;6.72;;;;;;;18.77;46.50;101758.50;5033438;28;20058;-79
2022/05/06 09:40:57;;;;;;;17.77;7.70;;;;;;;18.78;45.97;101762.03;5053015;28;20048;-76
2022/05/06 09:43:27;;;;;;;14.73;6.97;;;;;;;18.77;45.80;101755.00;5069819;28;20049;-77
2022/05/06 09:45:55;;;;;;;19.98;7.68;;;;;;;19.11;45.17;101758.63;5065211;28;20064;-76
2022/05/06 09:48:23;;;;;;;15.98;7.38;;;;;;;19.66;43.97;101757.84;5047322;28;20048;-75
2022/05/06 09:50:50;;;;;;;17.40;5.90;;;;;;;20.05;42.40;101752.13;5068052;28;21310;-76
2022/05/06 09:53:25;;;;;;;9.00;5.30;;;;;;;20.39;42.79;101751.03;5062291;28;20055;-77
2022/05/06 09:55:54;;;;;;;12.85;5.25;;;;;;;20.61;42.38;101750.13;5065702;28;20054;-76
2022/05/06 09:58:26;;;;;;;11.35;4.43;;;;;;;20.63;41.84;101747.34;5060665;28;20046;-77
2022/05/06 10:00:54;;;;;;;10.38;4.25;;;;;;;20.32;42.13;101743.66;5067473;28;20056;-76
2022/05/06 10:03:21;;;;;;;8.85;4.45;;;;;;;20.36;42.57;101743.28;5059652;28;20039;-76
2022/05/06 10:05:48;;;;;;;10.98;5.43;;;;;;;20.16;41.98;101744.91;5078387;28;20756;-75
2022/05/06 10:08:17;;;;;;;10.65;4.07;;;;;;;19.86;42.17;101740.25;5065522;28;20082;-76
2022/05/06 10:11:00;;;;;;;8.60;3.53;;;;;;;19.62;41.80;101743.03;5057531;28;20053;-76
2022/05/06 10:13:31;;;;;;;8.45;4.25;;;;;;;19.54;41.71;101747.25;5062275;28;20520;-76
2022/05/06 10:15:58;;;;;;;6.93;4.03;;;;;;;19.85;41.34;101743.00;5056618;28;20506;-75
2022/05/06 10:18:41;;;;;;;6.20;3.72;;;;;;;20.53;41.11;101733.88;5048498;28;20052;-75
2022/05/06 10:21:09;;;;;;;12.38;3.70;;;;;;;21.23;40.37;101730.56;5067212;28;20045;-77
2022/05/06 10:23:57;;;;;;;7.78;4.38;;;;;;;21.56;39.67;101728.63;5069342;28;20059;-77
2022/05/06 10:26:33;;;;;;;9.75;4.13;;;;;;;22.32;40.16;101722.78;5050616;28;20036;-75
2022/05/06 10:35:08;;;;;;;7.60;4.15;;;;;;;21.68;37.74;101718.66;5051124;28;20055;-77
2022/05/06 10:37:44;;;;;;;9.30;4.20;;;;;;;21.22;38.65;101728.03;5045024;28;20937;-78
2022/05/06 10:40:24;;;;;;;9.38;4.45;;;;;;;20.94;40.07;101729.56;5066545;28;20158;-77
2022/05/06 10:42:52;;;;;;;5.25;3.63;;;;;;;20.05;40.33;101728.06;5064364;28;20255;-77
2022/05/06 10:45:26;;;;;;;12.80;3.97;;;;;;;19.94;40.60;101726.25;5062547;28;20041;-76
2022/05/06 10:47:54;;;;;;;9.93;3.75;;;;;;;20.68;39.97;101721.06;5056902;28;20139;-76
2022/05/06 10:50:24;;;;;;;10.25;3.65;;;;;;;21.45;39.72;101709.97;5049592;28;20181;-76
2022/05/06 10:52:57;;;;;;;8.55;3.80;;;;;;;21.93;38.79;101709.28;5057820;28;20049;-76
2022/05/06 10:55:25;;;;;;;6.80;3.30;;;;;;;22.14;39.01;101710.06;5048482;28;20856;-76
2022/05/06 10:57:56;;;;;;;9.75;3.38;;;;;;;22.13;35.62;101705.69;5050202;28;20131;-75
2022/05/06 11:00:27;;;;;;;6.70;3.35;;;;;;;21.73;36.08;101709.22;5070824;28;20052;-75
2022/05/06 11:02:54;;;;;;;7.15;3.03;;;;;;;21.93;36.92;101698.53;5034473;28;20522;-75
2022/05/06 11:05:24;;;;;;;8.02;4.03;;;;;;;22.56;36.71;101695.50;5065914;28;20043;-76
2022/05/06 11:07:54;;;;;;;16.20;5.80;;;;;;;23.02;35.02;101694.78;5057876;28;20342;-76
2022/05/06 11:10:25;;;;;;;5.90;2.92;;;;;;;22.64;34.55;101693.81;5060696;28;20056;-75
2022/05/06 11:12:54;;;;;;;13.93;3.55;;;;;;;21.90;36.33;101705.03;5045462;28;20036;-77
2022/05/06 11:15:24;;;;;;;6.30;3.28;;;;;;;22.09;36.52;101695.34;5044957;28;20048;-76
2022/05/06 11:17:55;;;;;;;6.75;3.00;;;;;;;22.00;38.36;101688.97;5042072;28;20063;-77
2022/05/06 11:20:31;;;;;;;8.02;3.33;;;;;;;22.69;37.27;101686.19;5039385;28;20044;-75
2022/05/06 11:22:59;;;;;;;14.15;3.42;;;;;;;22.95;36.38;101682.91;5059856;28;20057;-77
2022/05/06 11:25:29;;;;;;;8.13;3.08;;;;;;;23.09;37.08;101678.91;5046796;28;20037;-78
2022/05/06 11:27:59;;;;;;;18.35;6.05;;;;;;;22.49;35.92;101684.50;5051757;28;20044;-76
2022/05/06 11:30:27;;;;;;;23.73;7.65;;;;;;;22.21;36.74;101678.16;5066448;28;20072;-76
2022/05/06 11:33:00;;;;;;;9.20;4.10;;;;;;;22.17;37.10;101677.59;5063501;28;20048;-75
2022/05/06 11:35:43;;;;;;;12.23;3.75;;;;;;;22.24;36.22;101676.06;5038864;28;20052;-77
2022/05/06 11:38:10;;;;;;;9.07;3.10;;;;;;;22.18;35.98;101678.44;5056264;28;20452;-76
2022/05/06 11:40:39;;;;;;;7.60;2.92;;;;;;;22.16;35.68;101678.59;5063145;28;20529;-75
2022/05/06 11:43:08;;;;;;;11.30;4.20;;;;;;;22.62;35.67;101678.84;5047253;28;20055;-75
2022/05/06 11:48:22;;;;;;;7.10;3.65;;;;;;;23.52;32.98;101670.25;5069928;28;20086;-76
2022/05/06 11:50:56;;;;;;;4.22;2.55;;;;;;;22.88;33.38;101665.69;5027628;28;20859;-76
2022/05/06 11:53:27;;;;;;;6.07;2.15;;;;;;;22.27;34.05;101653.47;5057112;28;20041;-76
2022/05/06 11:55:55;;;;;;;6.32;2.55;;;;;;;22.35;34.04;101669.69;5039309;28;20049;-75
2022/05/06 11:58:24;;;;;;;12.05;3.10;;;;;;;22.11;34.81;101667.41;5063438;28;20256;-80
2022/05/06 12:00:53;;;;;;;9.38;3.47;;;;;;;22.05;35.17;101669.78;5041949;28;20053;-75
2022/05/06 12:03:21;;;;;;;8.32;2.92;;;;;;;21.93;35.98;101664.56;5027469;28;20048;-76
2022/05/06 12:06:04;;;;;;;7.63;3.08;;;;;;;21.79;35.82;101659.56;5043654;28;20053;-77
2022/05/06 12:08:32;;;;;;;10.23;3.42;;;;;;;21.77;35.76;101663.41;5022902;28;20052;-74
2022/05/06 12:11:01;;;;;;;13.40;5.07;;;;;;;21.89;35.74;101659.63;5061741;28;20059;-76
2022/05/06 12:13:40;;;;;;;19.27;7.28;;;;;;;21.84;36.23;101660.03;5061914;28;20051;-75